sensor_id;sensor_type;location;lat;lon;timestamp;pressure;altitude;pressure_sealevel;temperature;humidity
72558;BME280;60583;50.094;8.748;2023-07-20T00:02:15;100184.03;;;21.31;50.37
72558;BME280;60583;50.094;8.748;2023-07-20T00:04:40;100170.47;;;21.21;50.73
72558;BME280;60583;50.094;8.748;2023-07-20T00:07:05;100194.59;;;21.23;51.23
72558;BME280;60583;50.094;8.748;2023-07-20T00:09:31;100175.09;;;21.16;51.07
72558;BME280;60583;50.094;8.748;2023-07-20T00:11:56;100195.97;;;21.20;51.38
72558;BME280;60583;50.094;8.748;2023-07-20T00:14:23;100193.25;;;21.20;51.21
72558;BME280;60583;50.094;8.748;2023-07-20T00:16:50;100201.66;;;21.24;51.14
72558;BME280;60583;50.094;8.748;2023-07-20T00:19:25;100200.56;;;21.20;51.40
72558;BME280;60583;50.094;8.748;2023-07-20T00:21:50;100207.09;;;21.19;51.41
72558;BME280;60583;50.094;8.748;2023-07-20T00:24:16;100188.94;;;21.19;51.48
72558;BME280;60583;50.094;8.748;2023-07-20T00:26:42;100201.91;;;21.17;51.72
72558;BME280;60583;50.094;8.748;2023-07-20T00:29:07;100192.19;;;21.11;51.96
72558;BME280;60583;50.094;8.748;2023-07-20T00:31:32;100187.81;;;21.00;52.26
72558;BME280;60583;50.094;8.748;2023-07-20T00:34:00;100189.69;;;20.99;52.19
72558;BME280;60583;50.094;8.748;2023-07-20T00:36:25;100171.00;;;20.88;52.09
72558;BME280;60583;50.094;8.748;2023-07-20T00:38:51;100179.41;;;20.86;52.42
72558;BME280;60583;50.094;8.748;2023-07-20T00:41:16;100186.19;;;21.04;52.27
72558;BME280;60583;50.094;8.748;2023-07-20T00:43:42;100188.91;;;20.99;52.13
72558;BME280;60583;50.094;8.748;2023-07-20T00:46:08;100191.09;;;21.07;52.38
72558;BME280;60583;50.094;8.748;2023-07-20T00:48:34;100196.47;;;21.02;52.40
72558;BME280;60583;50.094;8.748;2023-07-20T00:51:01;100183.75;;;20.92;52.48
72558;BME280;60583;50.094;8.748;2023-07-20T00:53:27;100176.97;;;20.80;52.90
72558;BME280;60583;50.094;8.748;2023-07-20T00:55:53;100181.03;;;20.77;53.11
72558;BME280;60583;50.094;8.748;2023-07-20T00:58:19;100189.97;;;20.78;53.07
72558;BME280;60583;50.094;8.748;2023-07-20T01:00:45;100204.34;;;20.78;53.48
72558;BME280;60583;50.094;8.748;2023-07-20T01:03:12;100189.44;;;20.81;53.32
72558;BME280;60583;50.094;8.748;2023-07-20T01:05:48;100205.69;;;20.71;53.70
72558;BME280;60583;50.094;8.748;2023-07-20T01:08:32;100198.91;;;20.68;53.88
72558;BME280;60583;50.094;8.748;2023-07-20T01:11:15;100197.81;;;20.69;54.04
72558;BME280;60583;50.094;8.748;2023-07-20T01:13:43;100206.78;;;20.70;53.98
72558;BME280;60583;50.094;8.748;2023-07-20T01:16:08;100211.09;;;20.51;54.49
72558;BME280;60583;50.094;8.748;2023-07-20T01:18:34;100199.69;;;20.39;55.14
72558;BME280;60583;50.094;8.748;2023-07-20T01:21:04;100199.13;;;20.26;55.15
72558;BME280;60583;50.094;8.748;2023-07-20T01:29:28;100213.91;;;20.09;55.81
72558;BME280;60583;50.094;8.748;2023-07-20T01:32:00;100198.41;;;19.94;56.44
72558;BME280;60583;50.094;8.748;2023-07-20T01:34:29;100207.06;;;19.91;56.60
72558;BME280;60583;50.094;8.748;2023-07-20T01:36:55;100203.00;;;19.89;56.50
72558;BME280;60583;50.094;8.748;2023-07-20T01:39:22;100189.66;;;19.77;56.68
72558;BME280;60583;50.094;8.748;2023-07-20T01:41:48;100200.22;;;19.73;57.21
72558;BME280;60583;50.094;8.748;2023-07-20T01:44:14;100195.06;;;19.72;57.22
72558;BME280;60583;50.094;8.748;2023-07-20T01:46:39;100180.38;;;19.58;57.41
72558;BME280;60583;50.094;8.748;2023-07-20T01:49:04;100218.06;;;19.74;57.55
72558;BME280;60583;50.094;8.748;2023-07-20T01:51:30;100222.88;;;19.62;57.90
72558;BME280;60583;50.094;8.748;2023-07-20T01:53:55;100221.97;;;19.47;58.82
72558;BME280;60583;50.094;8.748;2023-07-20T01:56:21;100207.63;;;19.46;58.32
72558;BME280;60583;50.094;8.748;2023-07-20T01:58:46;100213.00;;;19.41;58.50
72558;BME280;60583;50.094;8.748;2023-07-20T02:01:11;100202.97;;;19.37;58.78
72558;BME280;60583;50.094;8.748;2023-07-20T02:03:37;100214.91;;;19.41;58.72
72558;BME280;60583;50.094;8.748;2023-07-20T02:06:02;100219.78;;;19.44;58.90
72558;BME280;60583;50.094;8.748;2023-07-20T02:08:28;100214.91;;;19.41;59.13
72558;BME280;60583;50.094;8.748;2023-07-20T02:10:53;100212.25;;;19.46;59.15
72558;BME280;60583;50.094;8.748;2023-07-20T02:13:19;100211.84;;;19.32;59.25
72558;BME280;60583;50.094;8.748;2023-07-20T02:15:44;100205.59;;;19.32;58.99
72558;BME280;60583;50.094;8.748;2023-07-20T02:18:10;100208.81;;;19.29;59.30
72558;BME280;60583;50.094;8.748;2023-07-20T02:20:35;100224.28;;;19.33;59.16
72558;BME280;60583;50.094;8.748;2023-07-20T02:23:01;100182.22;;;19.10;59.36
72558;BME280;60583;50.094;8.748;2023-07-20T02:25:26;100197.38;;;19.17;59.43
72558;BME280;60583;50.094;8.748;2023-07-20T02:27:52;100214.94;;;19.14;59.89
72558;BME280;60583;50.094;8.748;2023-07-20T02:30:17;100205.97;;;19.08;60.07
72558;BME280;60583;50.094;8.748;2023-07-20T02:32:43;100211.66;;;19.07;60.25
72558;BME280;60583;50.094;8.748;2023-07-20T02:35:11;100201.25;;;18.94;60.24
72558;BME280;60583;50.094;8.748;2023-07-20T02:37:37;100224.66;;;19.10;60.23
72558;BME280;60583;50.094;8.748;2023-07-20T02:40:02;100210.53;;;19.03;60.19
72558;BME280;60583;50.094;8.748;2023-07-20T02:42:29;100207.22;;;18.96;60.30
72558;BME280;60583;50.094;8.748;2023-07-20T02:44:55;100224.34;;;19.06;60.24
72558;BME280;60583;50.094;8.748;2023-07-20T02:47:20;100212.94;;;18.99;60.41
72558;BME280;60583;50.094;8.748;2023-07-20T02:49:45;100218.84;;;18.96;60.46
72558;BME280;60583;50.094;8.748;2023-07-20T02:52:11;100208.63;;;19.03;60.41
72558;BME280;60583;50.094;8.748;2023-07-20T02:54:36;100221.59;;;19.01;60.38
72558;BME280;60583;50.094;8.748;2023-07-20T02:57:02;100212.69;;;19.06;60.18
72558;BME280;60583;50.094;8.748;2023-07-20T02:59:27;100219.72;;;19.02;60.42
72558;BME280;60583;50.094;8.748;2023-07-20T03:01:52;100213.34;;;18.86;60.75
72558;BME280;60583;50.094;8.748;2023-07-20T03:04:19;100214.44;;;18.85;60.77
72558;BME280;60583;50.094;8.748;2023-07-20T03:06:45;100222.59;;;18.90;60.62
72558;BME280;60583;50.094;8.748;2023-07-20T03:09:10;100229.84;;;18.85;60.66
72558;BME280;60583;50.094;8.748;2023-07-20T03:11:35;100215.97;;;18.76;60.56
72558;BME280;60583;50.094;8.748;2023-07-20T03:14:01;100207.00;;;18.71;60.61
72558;BME280;60583;50.094;8.748;2023-07-20T03:16:26;100205.94;;;18.72;60.89
72558;BME280;60583;50.094;8.748;2023-07-20T03:18:52;100220.41;;;18.87;60.58
72558;BME280;60583;50.094;8.748;2023-07-20T03:21:18;100222.00;;;18.88;60.61
72558;BME280;60583;50.094;8.748;2023-07-20T03:23:43;100214.69;;;18.84;60.73
72558;BME280;60583;50.094;8.748;2023-07-20T03:26:09;100210.59;;;18.81;60.52
72558;BME280;60583;50.094;8.748;2023-07-20T03:28:35;100215.84;;;18.93;60.33
72558;BME280;60583;50.094;8.748;2023-07-20T03:31:01;100230.91;;;18.84;61.02
72558;BME280;60583;50.094;8.748;2023-07-20T03:33:28;100233.59;;;18.84;60.65
72558;BME280;60583;50.094;8.748;2023-07-20T03:35:54;100225.72;;;18.77;60.80
72558;BME280;60583;50.094;8.748;2023-07-20T03:38:20;100200.69;;;18.60;61.24
72558;BME280;60583;50.094;8.748;2023-07-20T03:40:50;100226.78;;;18.76;61.25
72558;BME280;60583;50.094;8.748;2023-07-20T03:43:15;100232.81;;;18.88;60.85
72558;BME280;60583;50.094;8.748;2023-07-20T03:45:41;100211.28;;;18.67;61.25
72558;BME280;60583;50.094;8.748;2023-07-20T03:48:06;100217.47;;;18.62;61.42
72558;BME280;60583;50.094;8.748;2023-07-20T03:50:31;100217.97;;;18.59;61.56
72558;BME280;60583;50.094;8.748;2023-07-20T03:52:57;100209.66;;;18.44;61.86
72558;BME280;60583;50.094;8.748;2023-07-20T03:55:23;100231.41;;;18.54;61.93
72558;BME280;60583;50.094;8.748;2023-07-20T03:57:48;100219.50;;;18.50;61.69
72558;BME280;60583;50.094;8.748;2023-07-20T04:00:16;100222.19;;;18.50;62.07
72558;BME280;60583;50.094;8.748;2023-07-20T04:02:42;100233.84;;;18.56;61.84
72558;BME280;60583;50.094;8.748;2023-07-20T04:05:08;100214.59;;;18.47;62.04
72558;BME280;60583;50.094;8.748;2023-07-20T04:07:33;100221.38;;;18.50;61.90
72558;BME280;60583;50.094;8.748;2023-07-20T04:09:58;100224.09;;;18.50;62.01
72558;BME280;60583;50.094;8.748;2023-07-20T04:12:24;100221.47;;;18.38;62.57
72558;BME280;60583;50.094;8.748;2023-07-20T04:14:49;100235.69;;;18.28;62.77
72558;BME280;60583;50.094;8.748;2023-07-20T04:17:15;100213.50;;;18.00;63.28
72558;BME280;60583;50.094;8.748;2023-07-20T04:19:40;100200.44;;;17.92;63.43
72558;BME280;60583;50.094;8.748;2023-07-20T04:22:05;100240.47;;;18.00;63.98
72558;BME280;60583;50.094;8.748;2023-07-20T04:24:31;100230.81;;;17.82;64.34
72558;BME280;60583;50.094;8.748;2023-07-20T04:26:56;100203.69;;;17.72;64.00
72558;BME280;60583;50.094;8.748;2023-07-20T04:29:22;100247.63;;;17.89;64.16
72558;BME280;60583;50.094;8.748;2023-07-20T04:31:47;100239.31;;;17.96;63.96
72558;BME280;60583;50.094;8.748;2023-07-20T04:34:12;100230.47;;;17.78;64.09
72558;BME280;60583;50.094;8.748;2023-07-20T04:36:38;100225.50;;;17.70;64.00
72558;BME280;60583;50.094;8.748;2023-07-20T04:39:03;100203.28;;;17.63;64.92
72558;BME280;60583;50.094;8.748;2023-07-20T04:41:30;100235.16;;;17.66;64.73
72558;BME280;60583;50.094;8.748;2023-07-20T04:43:55;100242.31;;;17.77;64.78
72558;BME280;60583;50.094;8.748;2023-07-20T04:46:21;100238.44;;;17.68;64.42
72558;BME280;60583;50.094;8.748;2023-07-20T04:48:46;100246.72;;;17.83;64.28
72558;BME280;60583;50.094;8.748;2023-07-20T04:51:13;100226.00;;;17.67;64.40
72558;BME280;60583;50.094;8.748;2023-07-20T04:53:38;100264.03;;;17.88;64.48
72558;BME280;60583;50.094;8.748;2023-07-20T04:56:04;100244.28;;;17.82;64.25
72558;BME280;60583;50.094;8.748;2023-07-20T04:58:29;100260.91;;;17.74;65.28
72558;BME280;60583;50.094;8.748;2023-07-20T05:00:55;100254.59;;;17.68;65.02
72558;BME280;60583;50.094;8.748;2023-07-20T05:03:20;100265.06;;;17.65;65.20
72558;BME280;60583;50.094;8.748;2023-07-20T05:05:47;100256.03;;;17.54;65.72
72558;BME280;60583;50.094;8.748;2023-07-20T05:08:13;100266.91;;;17.59;66.03
72558;BME280;60583;50.094;8.748;2023-07-20T05:10:38;100255.91;;;17.66;65.29
72558;BME280;60583;50.094;8.748;2023-07-20T05:13:04;100263.47;;;17.85;65.00
72558;BME280;60583;50.094;8.748;2023-07-20T05:15:29;100277.09;;;17.96;64.54
72558;BME280;60583;50.094;8.748;2023-07-20T05:17:54;100261.81;;;18.01;64.25
72558;BME280;60583;50.094;8.748;2023-07-20T05:20:20;100274.41;;;17.96;64.65
72558;BME280;60583;50.094;8.748;2023-07-20T05:22:46;100256.41;;;18.01;64.24
72558;BME280;60583;50.094;8.748;2023-07-20T05:25:12;100268.66;;;18.09;64.21
72558;BME280;60583;50.094;8.748;2023-07-20T05:27:38;100273.69;;;18.22;63.99
72558;BME280;60583;50.094;8.748;2023-07-20T05:30:04;100255.59;;;18.22;63.70
72558;BME280;60583;50.094;8.748;2023-07-20T05:32:30;100258.50;;;18.37;63.48
72558;BME280;60583;50.094;8.748;2023-07-20T05:34:56;100245.72;;;18.33;63.16
72558;BME280;60583;50.094;8.748;2023-07-20T05:37:22;100255.03;;;18.42;63.16
72558;BME280;60583;50.094;8.748;2023-07-20T05:39:47;100267.91;;;18.57;62.82
72558;BME280;60583;50.094;8.748;2023-07-20T05:42:12;100272.53;;;18.61;62.83
72558;BME280;60583;50.094;8.748;2023-07-20T05:44:39;100262.09;;;18.70;62.58
72558;BME280;60583;50.094;8.748;2023-07-20T05:47:04;100268.53;;;18.90;62.09
72558;BME280;60583;50.094;8.748;2023-07-20T05:49:29;100268.09;;;19.03;61.65
72558;BME280;60583;50.094;8.748;2023-07-20T05:51:55;100269.00;;;19.14;61.48
72558;BME280;60583;50.094;8.748;2023-07-20T05:54:23;100267.16;;;19.20;61.64
72558;BME280;60583;50.094;8.748;2023-07-20T05:56:49;100279.28;;;19.44;60.92
72558;BME280;60583;50.094;8.748;2023-07-20T05:59:15;100278.25;;;19.50;60.43
72558;BME280;60583;50.094;8.748;2023-07-20T06:01:43;100284.25;;;19.57;60.08
72558;BME280;60583;50.094;8.748;2023-07-20T06:04:08;100286.84;;;19.79;59.49
72558;BME280;60583;50.094;8.748;2023-07-20T06:06:34;100283.59;;;19.82;59.61
72558;BME280;60583;50.094;8.748;2023-07-20T06:09:00;100282.91;;;19.96;59.67
72558;BME280;60583;50.094;8.748;2023-07-20T06:11:29;100285.09;;;20.04;58.90
72558;BME280;60583;50.094;8.748;2023-07-20T06:13:55;100265.44;;;19.77;59.13
72558;BME280;60583;50.094;8.748;2023-07-20T06:16:21;100295.78;;;19.84;59.18
72558;BME280;60583;50.094;8.748;2023-07-20T06:18:46;100289.03;;;19.87;59.41
72558;BME280;60583;50.094;8.748;2023-07-20T06:21:12;100272.00;;;19.86;58.86
72558;BME280;60583;50.094;8.748;2023-07-20T06:23:38;100293.56;;;20.18;58.41
72558;BME280;60583;50.094;8.748;2023-07-20T06:26:06;100289.00;;;20.23;57.95
72558;BME280;60583;50.094;8.748;2023-07-20T06:28:32;100291.81;;;20.44;58.02
72558;BME280;60583;50.094;8.748;2023-07-20T06:31:01;100296.00;;;20.81;56.85
72558;BME280;60583;50.094;8.748;2023-07-20T06:33:27;100272.66;;;20.75;56.48
72558;BME280;60583;50.094;8.748;2023-07-20T06:35:56;100299.50;;;20.87;56.83
72558;BME280;60583;50.094;8.748;2023-07-20T06:38:22;100298.38;;;20.63;56.78
72558;BME280;60583;50.094;8.748;2023-07-20T06:40:51;100301.03;;;20.48;57.48
72558;BME280;60583;50.094;8.748;2023-07-20T06:43:17;100305.91;;;20.46;57.82
72558;BME280;60583;50.094;8.748;2023-07-20T06:45:42;100303.50;;;20.49;57.80
72558;BME280;60583;50.094;8.748;2023-07-20T06:48:08;100301.25;;;20.36;57.95
72558;BME280;60583;50.094;8.748;2023-07-20T06:50:34;100304.88;;;20.57;57.79
72558;BME280;60583;50.094;8.748;2023-07-20T06:52:59;100300.00;;;20.59;57.56
72558;BME280;60583;50.094;8.748;2023-07-20T06:55:26;100272.00;;;20.33;57.42
72558;BME280;60583;50.094;8.748;2023-07-20T06:57:51;100302.66;;;20.49;57.62
72558;BME280;60583;50.094;8.748;2023-07-20T07:00:17;100306.41;;;20.43;57.54
72558;BME280;60583;50.094;8.748;2023-07-20T07:02:43;100300.50;;;20.51;57.29
72558;BME280;60583;50.094;8.748;2023-07-20T07:05:08;100294.56;;;20.59;57.31
72558;BME280;60583;50.094;8.748;2023-07-20T07:07:34;100296.78;;;20.92;56.42
72558;BME280;60583;50.094;8.748;2023-07-20T07:10:00;100293.28;;;20.86;55.62
72558;BME280;60583;50.094;8.748;2023-07-20T07:12:26;100312.88;;;21.14;55.58
72558;BME280;60583;50.094;8.748;2023-07-20T07:14:51;100304.22;;;21.17;55.63
72558;BME280;60583;50.094;8.748;2023-07-20T07:17:17;100316.97;;;21.26;55.37
72558;BME280;60583;50.094;8.748;2023-07-20T07:19:43;100320.22;;;21.28;55.01
72558;BME280;60583;50.094;8.748;2023-07-20T07:22:09;100321.28;;;21.17;55.10
72558;BME280;60583;50.094;8.748;2023-07-20T07:24:35;100293.03;;;21.03;55.16
72558;BME280;60583;50.094;8.748;2023-07-20T07:27:01;100310.94;;;20.94;55.24
72558;BME280;60583;50.094;8.748;2023-07-20T07:29:27;100313.09;;;21.02;55.18
72558;BME280;60583;50.094;8.748;2023-07-20T07:31:52;100313.72;;;21.24;54.74
72558;BME280;60583;50.094;8.748;2023-07-20T07:34:18;100312.06;;;21.13;55.23
72558;BME280;60583;50.094;8.748;2023-07-20T07:36:43;100312.59;;;21.10;55.27
72558;BME280;60583;50.094;8.748;2023-07-20T07:39:09;100309.88;;;21.15;55.02
72558;BME280;60583;50.094;8.748;2023-07-20T07:41:35;100319.66;;;21.06;55.18
72558;BME280;60583;50.094;8.748;2023-07-20T07:44:00;100316.06;;;20.95;55.29
72558;BME280;60583;50.094;8.748;2023-07-20T07:46:25;100307.09;;;20.95;55.50
72558;BME280;60583;50.094;8.748;2023-07-20T07:48:51;100320.41;;;20.96;55.35
72558;BME280;60583;50.094;8.748;2023-07-20T07:51:16;100320.19;;;21.13;55.21
72558;BME280;60583;50.094;8.748;2023-07-20T07:53:42;100317.78;;;21.27;54.97
72558;BME280;60583;50.094;8.748;2023-07-20T07:56:08;100303.94;;;21.53;54.17
72558;BME280;60583;50.094;8.748;2023-07-20T07:58:34;100329.41;;;21.83;53.61
72558;BME280;60583;50.094;8.748;2023-07-20T08:00:59;100330.78;;;21.90;53.46
72558;BME280;60583;50.094;8.748;2023-07-20T08:03:25;100319.66;;;21.92;53.31
72558;BME280;60583;50.094;8.748;2023-07-20T08:05:54;100327.81;;;21.87;53.30
72558;BME280;60583;50.094;8.748;2023-07-20T08:08:21;100314.72;;;22.09;53.20
72558;BME280;60583;50.094;8.748;2023-07-20T08:10:46;100320.03;;;22.44;52.20
72558;BME280;60583;50.094;8.748;2023-07-20T08:13:12;100307.56;;;22.33;51.44
72558;BME280;60583;50.094;8.748;2023-07-20T08:15:38;100310.19;;;22.58;50.72
72558;BME280;60583;50.094;8.748;2023-07-20T08:18:03;100305.75;;;22.82;50.25
72558;BME280;60583;50.094;8.748;2023-07-20T08:20:29;100295.31;;;23.00;48.96
72558;BME280;60583;50.094;8.748;2023-07-20T08:22:55;100301.50;;;23.44;48.68
72558;BME280;60583;50.094;8.748;2023-07-20T08:25:21;100314.25;;;23.54;48.33
72558;BME280;60583;50.094;8.748;2023-07-20T08:27:47;100303.44;;;23.43;48.12
72558;BME280;60583;50.094;8.748;2023-07-20T08:30:13;100319.28;;;23.31;48.79
72558;BME280;60583;50.094;8.748;2023-07-20T08:32:38;100318.69;;;23.01;49.09
72558;BME280;60583;50.094;8.748;2023-07-20T08:35:05;100310.63;;;23.24;48.56
72558;BME280;60583;50.094;8.748;2023-07-20T08:37:31;100305.97;;;23.30;47.69
72558;BME280;60583;50.094;8.748;2023-07-20T08:39:56;100306.53;;;23.27;47.79
72558;BME280;60583;50.094;8.748;2023-07-20T08:42:22;100310.41;;;23.21;47.56
72558;BME280;60583;50.094;8.748;2023-07-20T08:44:48;100307.56;;;22.97;48.29
72558;BME280;60583;50.094;8.748;2023-07-20T08:47:16;100314.94;;;22.92;48.14
72558;BME280;60583;50.094;8.748;2023-07-20T08:49:41;100313.81;;;22.98;48.56
72558;BME280;60583;50.094;8.748;2023-07-20T08:52:07;100315.41;;;23.04;48.66
72558;BME280;60583;50.094;8.748;2023-07-20T08:54:33;100320.91;;;23.32;48.11
72558;BME280;60583;50.094;8.748;2023-07-20T08:57:04;100315.19;;;23.68;47.19
72558;BME280;60583;50.094;8.748;2023-07-20T08:59:30;100302.91;;;23.70;46.47
72558;BME280;60583;50.094;8.748;2023-07-20T09:01:59;100322.03;;;23.94;45.95
72558;BME280;60583;50.094;8.748;2023-07-20T09:04:25;100308.78;;;23.82;45.92
72558;BME280;60583;50.094;8.748;2023-07-20T09:06:51;100316.75;;;24.31;44.85
72558;BME280;60583;50.094;8.748;2023-07-20T09:09:16;100317.63;;;24.27;44.77
72558;BME280;60583;50.094;8.748;2023-07-20T09:11:42;100308.88;;;24.01;45.57
72558;BME280;60583;50.094;8.748;2023-07-20T09:14:09;100324.53;;;23.57;46.23
72558;BME280;60583;50.094;8.748;2023-07-20T09:16:52;100316.88;;;23.64;46.18
72558;BME280;60583;50.094;8.748;2023-07-20T09:19:18;100315.97;;;23.73;46.34
72558;BME280;60583;50.094;8.748;2023-07-20T09:21:45;100292.22;;;23.79;45.70
72558;BME280;60583;50.094;8.748;2023-07-20T09:24:12;100304.56;;;23.71;45.18
72558;BME280;60583;50.094;8.748;2023-07-20T09:26:41;100313.81;;;23.99;44.73
72558;BME280;60583;50.094;8.748;2023-07-20T09:29:08;100311.63;;;24.25;44.71
72558;BME280;60583;50.094;8.748;2023-07-20T09:31:35;100307.63;;;24.17;44.51
72558;BME280;60583;50.094;8.748;2023-07-20T09:34:00;100304.00;;;24.45;43.16
72558;BME280;60583;50.094;8.748;2023-07-20T09:36:29;100313.59;;;25.04;42.00
72558;BME280;60583;50.094;8.748;2023-07-20T09:38:55;100318.56;;;25.02;42.30
72558;BME280;60583;50.094;8.748;2023-07-20T09:41:21;100298.13;;;24.81;42.66
72558;BME280;60583;50.094;8.748;2023-07-20T09:43:47;100308.00;;;24.53;42.89
72558;BME280;60583;50.094;8.748;2023-07-20T09:46:12;100287.66;;;23.98;44.26
72558;BME280;60583;50.094;8.748;2023-07-20T09:48:39;100309.97;;;24.00;44.33
72558;BME280;60583;50.094;8.748;2023-07-20T09:51:04;100298.25;;;23.76;44.75
72558;BME280;60583;50.094;8.748;2023-07-20T09:53:33;100308.75;;;23.59;44.66
72558;BME280;60583;50.094;8.748;2023-07-20T09:55:59;100304.09;;;23.59;45.20
72558;BME280;60583;50.094;8.748;2023-07-20T09:58:26;100301.75;;;23.47;44.63
72558;BME280;60583;50.094;8.748;2023-07-20T10:00:54;100316.75;;;23.45;45.24
72558;BME280;60583;50.094;8.748;2023-07-20T10:03:29;100311.41;;;23.30;45.34
72558;BME280;60583;50.094;8.748;2023-07-20T10:06:04;100304.53;;;22.99;46.40
72558;BME280;60583;50.094;8.748;2023-07-20T10:08:31;100289.59;;;22.96;46.47
72558;BME280;60583;50.094;8.748;2023-07-20T10:10:59;100309.97;;;22.99;46.80
72558;BME280;60583;50.094;8.748;2023-07-20T10:13:27;100301.56;;;23.00;46.50
72558;BME280;60583;50.094;8.748;2023-07-20T10:16:03;100308.19;;;23.23;46.47
72558;BME280;60583;50.094;8.748;2023-07-20T10:18:51;100300.50;;;23.92;45.46
72558;BME280;60583;50.094;8.748;2023-07-20T10:21:20;100304.78;;;24.51;43.93
72558;BME280;60583;50.094;8.748;2023-07-20T10:23:48;100302.41;;;24.87;42.98
72558;BME280;60583;50.094;8.748;2023-07-20T10:26:14;100281.72;;;24.62;43.13
72558;BME280;60583;50.094;8.748;2023-07-20T10:28:39;100285.84;;;24.59;43.71
72558;BME280;60583;50.094;8.748;2023-07-20T10:31:07;100292.28;;;24.45;44.01
72558;BME280;60583;50.094;8.748;2023-07-20T10:33:33;100288.84;;;24.39;43.91
72558;BME280;60583;50.094;8.748;2023-07-20T10:36:04;100283.16;;;24.36;43.97
72558;BME280;60583;50.094;8.748;2023-07-20T10:38:41;100265.88;;;24.22;44.31
72558;BME280;60583;50.094;8.748;2023-07-20T10:41:20;100276.06;;;24.96;42.82
72558;BME280;60583;50.094;8.748;2023-07-20T10:43:47;100274.13;;;25.93;40.73
72558;BME280;60583;50.094;8.748;2023-07-20T10:46:13;100265.22;;;25.60;40.35
72558;BME280;60583;50.094;8.748;2023-07-20T10:48:59;100277.53;;;25.58;40.32
72558;BME280;60583;50.094;8.748;2023-07-20T10:51:25;100272.25;;;25.48;39.94
72558;BME280;60583;50.094;8.748;2023-07-20T10:53:50;100261.06;;;25.63;39.78
72558;BME280;60583;50.094;8.748;2023-07-20T10:56:22;100258.84;;;25.65;39.44
72558;BME280;60583;50.094;8.748;2023-07-20T10:58:47;100252.97;;;25.58;39.75
72558;BME280;60583;50.094;8.748;2023-07-20T11:01:16;100248.16;;;25.17;39.99
72558;BME280;60583;50.094;8.748;2023-07-20T11:03:42;100264.16;;;25.05;40.49
72558;BME280;60583;50.094;8.748;2023-07-20T11:09:03;100258.28;;;24.98;41.02
72558;BME280;60583;50.094;8.748;2023-07-20T11:11:31;100263.50;;;25.13;40.98
72558;BME280;60583;50.094;8.748;2023-07-20T11:14:02;100262.06;;;25.34;40.18
72558;BME280;60583;50.094;8.748;2023-07-20T11:16:41;100260.78;;;26.05;39.36
72558;BME280;60583;50.094;8.748;2023-07-20T11:19:33;100238.19;;;27.12;37.36
72558;BME280;60583;50.094;8.748;2023-07-20T11:21:58;100252.00;;;26.85;37.20
72558;BME280;60583;50.094;8.748;2023-07-20T11:24:24;100257.31;;;26.54;37.45
72558;BME280;60583;50.094;8.748;2023-07-20T11:26:52;100259.03;;;25.95;38.72
72558;BME280;60583;50.094;8.748;2023-07-20T11:29:20;100251.97;;;25.67;39.31
72558;BME280;60583;50.094;8.748;2023-07-20T11:31:46;100252.16;;;25.57;38.93
72558;BME280;60583;50.094;8.748;2023-07-20T11:34:21;100240.41;;;25.57;38.63
72558;BME280;60583;50.094;8.748;2023-07-20T11:36:49;100249.19;;;25.54;38.87
72558;BME280;60583;50.094;8.748;2023-07-20T11:39:19;100234.22;;;25.51;39.07
72558;BME280;60583;50.094;8.748;2023-07-20T11:41:52;100246.22;;;25.82;38.47
72558;BME280;60583;50.094;8.748;2023-07-20T11:44:21;100231.81;;;26.45;37.56
72558;BME280;60583;50.094;8.748;2023-07-20T11:47:03;100243.84;;;26.44;37.65
72558;BME280;60583;50.094;8.748;2023-07-20T11:49:29;100225.63;;;25.71;38.78
72558;BME280;60583;50.094;8.748;2023-07-20T11:51:55;100240.00;;;25.31;39.61
72558;BME280;60583;50.094;8.748;2023-07-20T11:54:21;100245.69;;;25.02;40.48
72558;BME280;60583;50.094;8.748;2023-07-20T11:56:48;100231.22;;;24.83;41.23
72558;BME280;60583;50.094;8.748;2023-07-20T11:59:13;100240.44;;;25.06;40.28
72558;BME280;60583;50.094;8.748;2023-07-20T12:01:39;100225.03;;;24.96;39.86
72558;BME280;60583;50.094;8.748;2023-07-20T12:04:04;100222.31;;;24.96;39.97
72558;BME280;60583;50.094;8.748;2023-07-20T12:06:30;100236.78;;;25.10;40.26
72558;BME280;60583;50.094;8.748;2023-07-20T12:08:57;100230.16;;;25.16;39.74
72558;BME280;60583;50.094;8.748;2023-07-20T12:11:31;100223.75;;;25.40;39.85
72558;BME280;60583;50.094;8.748;2023-07-20T12:13:57;100211.53;;;25.05;40.20
72558;BME280;60583;50.094;8.748;2023-07-20T12:16:27;100214.69;;;25.25;39.97
72558;BME280;60583;50.094;8.748;2023-07-20T12:19:07;100215.56;;;25.40;39.50
72558;BME280;60583;50.094;8.748;2023-07-20T12:21:36;100208.84;;;26.05;38.14
72558;BME280;60583;50.094;8.748;2023-07-20T12:24:02;100198.53;;;26.02;37.69
72558;BME280;60583;50.094;8.748;2023-07-20T12:26:32;100213.81;;;26.30;37.49
72558;BME280;60583;50.094;8.748;2023-07-20T12:28:59;100212.91;;;25.94;36.73
72558;BME280;60583;50.094;8.748;2023-07-20T12:31:25;100199.94;;;25.59;37.70
72558;BME280;60583;50.094;8.748;2023-07-20T12:33:52;100216.25;;;25.77;37.58
72558;BME280;60583;50.094;8.748;2023-07-20T12:36:18;100200.22;;;25.71;38.10
72558;BME280;60583;50.094;8.748;2023-07-20T12:38:45;100190.38;;;25.43;38.64
72558;BME280;60583;50.094;8.748;2023-07-20T12:41:12;100203.50;;;25.41;38.83
72558;BME280;60583;50.094;8.748;2023-07-20T12:43:38;100204.41;;;25.36;39.11
72558;BME280;60583;50.094;8.748;2023-07-20T12:46:04;100213.38;;;25.23;39.10
72558;BME280;60583;50.094;8.748;2023-07-20T12:48:29;100196.47;;;25.07;39.23
72558;BME280;60583;50.094;8.748;2023-07-20T12:50:55;100201.03;;;25.12;38.99
72558;BME280;60583;50.094;8.748;2023-07-20T12:53:20;100179.72;;;24.95;38.93
72558;BME280;60583;50.094;8.748;2023-07-20T12:55:46;100193.94;;;25.11;38.73
72558;BME280;60583;50.094;8.748;2023-07-20T12:58:12;100204.22;;;25.00;38.53